RA67800 USTR-UNOO
Flight info
| Callsign | RA67800 |
|---|---|
| Flight time | N/A |
| Altitude | 9000 |
| Route | K0202F090 DOMEK1R DOMEK A305 LUKAS B236 OKETI B812 MANUG MANUG6B |
| Aircraft | C172/L-SFG/C |
Departure
| Time | 2026-05-07 05:05 |
|---|---|
| Airport | Roshchino International Airport (USTR) |
Arrival
| Time | N/A |
|---|---|
| Airport | Omsk Central Airport (UNOO) |
| Time | Latitude | Longitude | Altitude | Speed | Heading |
|---|---|---|---|---|---|
| 2026-05-07 04:53 | 57.17569 | 65.35453 | 335 ft | 0 kts | 45° |
| 2026-05-07 04:56 | 57.17569 | 65.35452 | 335 ft | 0 kts | 45° |
| 2026-05-07 04:57 | 57.17572 | 65.35458 | 335 ft | 4 kts | 41° |
| 2026-05-07 04:58 | 57.17593 | 65.35489 | 335 ft | 4 kts | 12° |
| 2026-05-07 04:58 | 57.17627 | 65.35438 | 333 ft | 10 kts | 315° |
| 2026-05-07 04:58 | 57.17692 | 65.35318 | 335 ft | 15 kts | 314° |
| 2026-05-07 04:58 | 57.17772 | 65.35167 | 335 ft | 18 kts | 316° |
| 2026-05-07 04:59 | 57.17867 | 65.34992 | 333 ft | 19 kts | 314° |
| 2026-05-07 04:59 | 57.17955 | 65.34830 | 335 ft | 16 kts | 316° |
| 2026-05-07 04:59 | 57.18001 | 65.34697 | 335 ft | 9 kts | 252° |
| 2026-05-07 04:59 | 57.17941 | 65.34585 | 335 ft | 16 kts | 226° |
| 2026-05-07 05:00 | 57.17890 | 65.34447 | 336 ft | 11 kts | 263° |
| 2026-05-07 05:00 | 57.17939 | 65.34299 | 336 ft | 18 kts | 310° |
| 2026-05-07 05:00 | 57.18063 | 65.34066 | 333 ft | 31 kts | 316° |
| 2026-05-07 05:00 | 57.18215 | 65.33792 | 331 ft | 29 kts | 313° |
| 2026-05-07 05:01 | 57.18342 | 65.33558 | 335 ft | 24 kts | 314° |
| 2026-05-07 05:01 | 57.18452 | 65.33352 | 333 ft | 21 kts | 313° |
| 2026-05-07 05:01 | 57.18479 | 65.33152 | 328 ft | 19 kts | 266° |
| 2026-05-07 05:01 | 57.18475 | 65.32879 | 326 ft | 23 kts | 268° |
| 2026-05-07 05:02 | 57.18470 | 65.32570 | 323 ft | 23 kts | 267° |
| 2026-05-07 05:02 | 57.18464 | 65.32311 | 325 ft | 16 kts | 269° |
| 2026-05-07 05:02 | 57.18485 | 65.32162 | 328 ft | 13 kts | 311° |
| 2026-05-07 05:02 | 57.18571 | 65.32011 | 329 ft | 17 kts | 323° |
| 2026-05-07 05:03 | 57.18652 | 65.31888 | 327 ft | 13 kts | 318° |
| 2026-05-07 05:03 | 57.18705 | 65.31772 | 334 ft | 8 kts | 283° |
| 2026-05-07 05:03 | 57.18677 | 65.31661 | 339 ft | 13 kts | 230° |
| 2026-05-07 05:03 | 57.18536 | 65.31370 | 353 ft | 49 kts | 228° |
| 2026-05-07 05:04 | 57.18249 | 65.30792 | 389 ft | 70 kts | 225° |
| 2026-05-07 05:04 | 57.17868 | 65.30038 | 436 ft | 88 kts | 226° |
| 2026-05-07 05:04 | 57.17431 | 65.29170 | 542 ft | 96 kts | 225° |
| 2026-05-07 05:04 | 57.16968 | 65.28265 | 688 ft | 98 kts | 225° |
| 2026-05-07 05:05 | 57.16509 | 65.27338 | 853 ft | 100 kts | 227° |
| 2026-05-07 05:05 | 57.16054 | 65.26388 | 1062 ft | 97 kts | 220° |
| 2026-05-07 05:05 | 57.15397 | 65.26023 | 1146 ft | 108 kts | 176° |
| 2026-05-07 05:05 | 57.14736 | 65.26679 | 1292 ft | 113 kts | 139° |
| 2026-05-07 05:06 | 57.14306 | 65.27923 | 1477 ft | 116 kts | 131° |
| 2026-05-07 05:06 | 57.13867 | 65.29196 | 1559 ft | 119 kts | 130° |
| 2026-05-07 05:06 | 57.13423 | 65.30482 | 1685 ft | 118 kts | 130° |
| 2026-05-07 05:06 | 57.12990 | 65.31746 | 1846 ft | 117 kts | 130° |
| 2026-05-07 05:07 | 57.12548 | 65.33022 | 2057 ft | 119 kts | 132° |
| 2026-05-07 05:07 | 57.12105 | 65.34306 | 2227 ft | 119 kts | 131° |
| 2026-05-07 05:07 | 57.11662 | 65.35595 | 2416 ft | 119 kts | 132° |
| 2026-05-07 05:07 | 57.11214 | 65.36892 | 2505 ft | 121 kts | 130° |
| 2026-05-07 05:08 | 57.10762 | 65.38199 | 2562 ft | 122 kts | 131° |
| 2026-05-07 05:08 | 57.10312 | 65.39518 | 2664 ft | 122 kts | 131° |
| 2026-05-07 05:08 | 57.09847 | 65.40811 | 2734 ft | 122 kts | 130° |
| 2026-05-07 05:08 | 57.09405 | 65.42123 | 2891 ft | 122 kts | 130° |
| 2026-05-07 05:09 | 57.08951 | 65.43442 | 3093 ft | 122 kts | 131° |
| 2026-05-07 05:09 | 57.08494 | 65.44760 | 3276 ft | 122 kts | 128° |
| 2026-05-07 05:09 | 57.08040 | 65.46073 | 3523 ft | 121 kts | 128° |
| 2026-05-07 05:09 | 57.07584 | 65.47391 | 3572 ft | 122 kts | 128° |
| 2026-05-07 05:10 | 57.07129 | 65.48715 | 3729 ft | 123 kts | 126° |
| 2026-05-07 05:10 | 57.06663 | 65.50048 | 3883 ft | 124 kts | 129° |
| 2026-05-07 05:10 | 57.06202 | 65.51374 | 3913 ft | 125 kts | 129° |
| 2026-05-07 05:10 | 57.05735 | 65.52718 | 4026 ft | 125 kts | 126° |
| 2026-05-07 05:11 | 57.05265 | 65.54087 | 4079 ft | 127 kts | 128° |
| 2026-05-07 05:11 | 57.04783 | 65.55455 | 4251 ft | 128 kts | 128° |
| 2026-05-07 05:11 | 57.04303 | 65.56840 | 4411 ft | 128 kts | 128° |
| 2026-05-07 05:11 | 57.03824 | 65.58213 | 4488 ft | 128 kts | 127° |
| 2026-05-07 05:12 | 57.03342 | 65.59612 | 4512 ft | 130 kts | 127° |
| 2026-05-07 05:12 | 57.02857 | 65.60990 | 4559 ft | 130 kts | 127° |
| 2026-05-07 05:12 | 57.02365 | 65.62397 | 4663 ft | 130 kts | 125° |
| 2026-05-07 05:12 | 57.01882 | 65.63786 | 4779 ft | 129 kts | 124° |
| 2026-05-07 05:13 | 57.01418 | 65.65212 | 4822 ft | 131 kts | 114° |
| 2026-05-07 05:13 | 57.01286 | 65.66866 | 4852 ft | 134 kts | 92° |
| 2026-05-07 05:13 | 57.01240 | 65.68565 | 4975 ft | 133 kts | 94° |
| 2026-05-07 05:13 | 57.01182 | 65.70257 | 4998 ft | 133 kts | 94° |
| 2026-05-07 05:14 | 57.01119 | 65.71943 | 5082 ft | 132 kts | 94° |
| 2026-05-07 05:14 | 57.01054 | 65.73632 | 5172 ft | 133 kts | 93° |
| 2026-05-07 05:14 | 57.00989 | 65.75324 | 5311 ft | 133 kts | 94° |
| 2026-05-07 05:14 | 57.00923 | 65.76989 | 5393 ft | 132 kts | 94° |
| 2026-05-07 05:15 | 57.00861 | 65.78674 | 5477 ft | 132 kts | 93° |
| 2026-05-07 05:15 | 57.00796 | 65.80355 | 5538 ft | 131 kts | 93° |
| 2026-05-07 05:15 | 57.00731 | 65.82033 | 5577 ft | 133 kts | 93° |
| 2026-05-07 05:15 | 57.00687 | 65.83153 | 5657 ft | 132 kts | 92° |
| 2026-05-07 05:16 | 57.00623 | 65.84836 | 5729 ft | 132 kts | 93° |
| 2026-05-07 05:16 | 57.00534 | 65.87076 | 5778 ft | 133 kts | 93° |
| 2026-05-07 05:16 | 57.00488 | 65.88218 | 5823 ft | 133 kts | 92° |
| 2026-05-07 05:16 | 57.00421 | 65.89895 | 5957 ft | 133 kts | 92° |
| 2026-05-07 05:17 | 57.00356 | 65.91580 | 6085 ft | 132 kts | 92° |
| 2026-05-07 05:17 | 57.00287 | 65.93261 | 6192 ft | 131 kts | 92° |
| 2026-05-07 05:17 | 57.00220 | 65.94940 | 6239 ft | 132 kts | 92° |
| 2026-05-07 05:17 | 57.00151 | 65.96618 | 6266 ft | 131 kts | 91° |
| 2026-05-07 05:18 | 57.00087 | 65.98293 | 6269 ft | 132 kts | 92° |
| 2026-05-07 05:18 | 57.00020 | 65.99956 | 6263 ft | 132 kts | 92° |
| 2026-05-07 05:18 | 56.99951 | 66.01640 | 6286 ft | 132 kts | 92° |
| 2026-05-07 05:18 | 56.99883 | 66.03321 | 6336 ft | 132 kts | 92° |
| 2026-05-07 05:19 | 56.99813 | 66.04999 | 6365 ft | 132 kts | 92° |
| 2026-05-07 05:19 | 56.99746 | 66.06674 | 6432 ft | 132 kts | 92° |
| 2026-05-07 05:19 | 56.99605 | 66.08322 | 6485 ft | 131 kts | 110° |
| 2026-05-07 05:19 | 56.99241 | 66.09859 | 6531 ft | 131 kts | 113° |
| 2026-05-07 05:20 | 56.98883 | 66.11404 | 6535 ft | 131 kts | 112° |
| 2026-05-07 05:20 | 56.98533 | 66.12931 | 6536 ft | 131 kts | 113° |
| 2026-05-07 05:20 | 56.98177 | 66.14482 | 6587 ft | 132 kts | 112° |
| 2026-05-07 05:20 | 56.97820 | 66.16029 | 6581 ft | 131 kts | 113° |
| 2026-05-07 05:21 | 56.97467 | 66.17580 | 6579 ft | 131 kts | 112° |
| 2026-05-07 05:21 | 56.96759 | 66.20658 | 6652 ft | 131 kts | 113° |
| 2026-05-07 05:21 | 56.96410 | 66.22171 | 6713 ft | 130 kts | 113° |
| 2026-05-07 05:22 | 56.96058 | 66.23703 | 6715 ft | 130 kts | 113° |
| 2026-05-07 05:22 | 56.95706 | 66.25228 | 6744 ft | 130 kts | 113° |
| 2026-05-07 05:22 | 56.95355 | 66.26753 | 6762 ft | 130 kts | 113° |
| 2026-05-07 05:22 | 56.95005 | 66.28279 | 6772 ft | 130 kts | 114° |
| 2026-05-07 05:23 | 56.94651 | 66.29803 | 6841 ft | 129 kts | 114° |
| 2026-05-07 05:23 | 56.94305 | 66.31312 | 6872 ft | 128 kts | 114° |
| 2026-05-07 05:23 | 56.93960 | 66.32795 | 6886 ft | 128 kts | 114° |
| 2026-05-07 05:23 | 56.93612 | 66.34307 | 6886 ft | 128 kts | 113° |
| 2026-05-07 05:24 | 56.93263 | 66.35816 | 6891 ft | 128 kts | 114° |
| 2026-05-07 05:24 | 56.92914 | 66.37322 | 6897 ft | 128 kts | 114° |
| 2026-05-07 05:24 | 56.92565 | 66.38826 | 6894 ft | 128 kts | 114° |
| 2026-05-07 05:24 | 56.92217 | 66.40329 | 6909 ft | 128 kts | 114° |
| 2026-05-07 05:25 | 56.91868 | 66.41829 | 6939 ft | 128 kts | 114° |
| 2026-05-07 05:25 | 56.91524 | 66.43310 | 6978 ft | 128 kts | 114° |
| 2026-05-07 05:25 | 56.91175 | 66.44812 | 7019 ft | 127 kts | 115° |
| 2026-05-07 05:25 | 56.90828 | 66.46304 | 7066 ft | 127 kts | 114° |
| 2026-05-07 05:26 | 56.90482 | 66.47791 | 7128 ft | 126 kts | 114° |
| 2026-05-07 05:26 | 56.90141 | 66.49254 | 7126 ft | 126 kts | 114° |
| 2026-05-07 05:26 | 56.89797 | 66.50729 | 7182 ft | 126 kts | 114° |
| 2026-05-07 05:26 | 56.89455 | 66.52199 | 7247 ft | 125 kts | 115° |
| 2026-05-07 05:27 | 56.89113 | 66.53664 | 7272 ft | 125 kts | 114° |
| 2026-05-07 05:27 | 56.88770 | 66.55133 | 7292 ft | 125 kts | 115° |
| 2026-05-07 05:27 | 56.88426 | 66.56597 | 7332 ft | 125 kts | 114° |
| 2026-05-07 05:27 | 56.88086 | 66.58055 | 7380 ft | 125 kts | 114° |
| 2026-05-07 05:28 | 56.87750 | 66.59495 | 7434 ft | 124 kts | 115° |
| 2026-05-07 05:28 | 56.87411 | 66.60944 | 7487 ft | 123 kts | 114° |
| 2026-05-07 05:28 | 56.87075 | 66.62382 | 7488 ft | 123 kts | 115° |
| 2026-05-07 05:28 | 56.86737 | 66.63820 | 7488 ft | 123 kts | 115° |
| 2026-05-07 05:29 | 56.86396 | 66.65262 | 7551 ft | 124 kts | 115° |
| 2026-05-07 05:29 | 56.86062 | 66.66712 | 7645 ft | 123 kts | 115° |
| 2026-05-07 05:29 | 56.85719 | 66.68155 | 7683 ft | 124 kts | 115° |
| 2026-05-07 05:29 | 56.85377 | 66.69610 | 7729 ft | 124 kts | 115° |
| 2026-05-07 05:30 | 56.85039 | 66.71041 | 7795 ft | 125 kts | 115° |
| 2026-05-07 05:30 | 56.84699 | 66.72498 | 7845 ft | 125 kts | 115° |
| 2026-05-07 05:30 | 56.84353 | 66.73959 | 7990 ft | 125 kts | 114° |
| 2026-05-07 05:30 | 56.84013 | 66.75416 | 8081 ft | 125 kts | 115° |
| 2026-05-07 05:31 | 56.83662 | 66.76871 | 8123 ft | 125 kts | 117° |
| 2026-05-07 05:31 | 56.83303 | 66.78321 | 8208 ft | 125 kts | 116° |
| 2026-05-07 05:31 | 56.82945 | 66.79769 | 8275 ft | 125 kts | 116° |
| 2026-05-07 05:31 | 56.82586 | 66.81221 | 8411 ft | 126 kts | 116° |
| 2026-05-07 05:32 | 56.82231 | 66.82662 | 8453 ft | 126 kts | 116° |
| 2026-05-07 05:32 | 56.81871 | 66.84120 | 8522 ft | 126 kts | 116° |
| 2026-05-07 05:32 | 56.81510 | 66.85581 | 8611 ft | 126 kts | 115° |
| 2026-05-07 05:32 | 56.81149 | 66.87037 | 8682 ft | 125 kts | 116° |
| 2026-05-07 05:33 | 56.80792 | 66.88480 | 8706 ft | 127 kts | 116° |
| 2026-05-07 05:33 | 56.80428 | 66.89950 | 8744 ft | 127 kts | 116° |
| 2026-05-07 05:33 | 56.80067 | 66.91408 | 8788 ft | 126 kts | 116° |
| 2026-05-07 05:33 | 56.79707 | 66.92861 | 8800 ft | 126 kts | 116° |
| 2026-05-07 05:34 | 56.79345 | 66.94317 | 8835 ft | 126 kts | 117° |
| 2026-05-07 05:34 | 56.79106 | 66.95278 | 8889 ft | 126 kts | 116° |
| 2026-05-07 05:34 | 56.78605 | 66.97301 | 8886 ft | 133 kts | 117° |
| 2026-05-07 05:34 | 56.78226 | 66.98820 | 8890 ft | 130 kts | 116° |
| 2026-05-07 05:35 | 56.77857 | 67.00303 | 8892 ft | 129 kts | 116° |
| 2026-05-07 05:35 | 56.77485 | 67.01797 | 8893 ft | 128 kts | 116° |
| 2026-05-07 05:35 | 56.77116 | 67.03277 | 8885 ft | 128 kts | 116° |
| 2026-05-07 05:35 | 56.76748 | 67.04753 | 8888 ft | 128 kts | 116° |
| 2026-05-07 05:36 | 56.76382 | 67.06219 | 8886 ft | 126 kts | 116° |
| 2026-05-07 05:36 | 56.76017 | 67.07683 | 8887 ft | 127 kts | 117° |
| 2026-05-07 05:36 | 56.75658 | 67.09125 | 8887 ft | 126 kts | 117° |
| 2026-05-07 05:36 | 56.75290 | 67.10590 | 8885 ft | 127 kts | 117° |
| 2026-05-07 05:37 | 56.74925 | 67.12054 | 8887 ft | 126 kts | 117° |
| 2026-05-07 05:37 | 56.74559 | 67.13513 | 8888 ft | 126 kts | 116° |
| 2026-05-07 05:37 | 56.74194 | 67.14972 | 8886 ft | 126 kts | 116° |
| 2026-05-07 05:37 | 56.73831 | 67.16424 | 8887 ft | 126 kts | 116° |
| 2026-05-07 05:38 | 56.73464 | 67.17884 | 8886 ft | 127 kts | 117° |
| 2026-05-07 05:38 | 56.73094 | 67.19358 | 8899 ft | 130 kts | 117° |
| 2026-05-07 05:38 | 56.72715 | 67.20865 | 8896 ft | 130 kts | 117° |
| 2026-05-07 05:38 | 56.72346 | 67.22335 | 8895 ft | 128 kts | 118° |
| 2026-05-07 05:39 | 56.71977 | 67.23803 | 8893 ft | 126 kts | 117° |
| 2026-05-07 05:39 | 56.71613 | 67.25251 | 8889 ft | 125 kts | 117° |
| 2026-05-07 05:39 | 56.71251 | 67.26689 | 8888 ft | 125 kts | 117° |
| 2026-05-07 05:39 | 56.70894 | 67.28113 | 8898 ft | 125 kts | 117° |
| 2026-05-07 05:40 | 56.70531 | 67.29556 | 8888 ft | 124 kts | 117° |
| 2026-05-07 05:40 | 56.70163 | 67.31006 | 8890 ft | 127 kts | 117° |
| 2026-05-07 05:40 | 56.69795 | 67.32460 | 8893 ft | 125 kts | 117° |
| 2026-05-07 05:40 | 56.69435 | 67.33887 | 8898 ft | 127 kts | 117° |
| 2026-05-07 05:41 | 56.69070 | 67.35335 | 8900 ft | 125 kts | 117° |
| 2026-05-07 05:41 | 56.68706 | 67.36779 | 8901 ft | 127 kts | 118° |
| 2026-05-07 05:41 | 56.68334 | 67.38241 | 8896 ft | 127 kts | 117° |
| 2026-05-07 05:41 | 56.67962 | 67.39706 | 8899 ft | 127 kts | 117° |
| 2026-05-07 05:42 | 56.67595 | 67.41159 | 8898 ft | 126 kts | 117° |
| 2026-05-07 05:42 | 56.67229 | 67.42602 | 8900 ft | 126 kts | 117° |
| 2026-05-07 05:42 | 56.66867 | 67.44028 | 8894 ft | 125 kts | 117° |
| 2026-05-07 05:42 | 56.66505 | 67.45462 | 8899 ft | 124 kts | 117° |
| 2026-05-07 05:43 | 56.66136 | 67.46910 | 8905 ft | 128 kts | 117° |
| 2026-05-07 05:43 | 56.65763 | 67.48368 | 8901 ft | 126 kts | 118° |
| 2026-05-07 05:43 | 56.65394 | 67.49816 | 8898 ft | 125 kts | 117° |
| 2026-05-07 05:43 | 56.65030 | 67.51253 | 8897 ft | 125 kts | 118° |
| 2026-05-07 05:44 | 56.64667 | 67.52678 | 8903 ft | 126 kts | 118° |
| 2026-05-07 05:44 | 56.64294 | 67.54137 | 8906 ft | 127 kts | 117° |
| 2026-05-07 05:44 | 56.63921 | 67.55603 | 8911 ft | 129 kts | 117° |
| 2026-05-07 05:44 | 56.63544 | 67.57085 | 8914 ft | 130 kts | 117° |
| 2026-05-07 05:45 | 56.63162 | 67.58567 | 8913 ft | 131 kts | 115° |
| 2026-05-07 05:45 | 56.62783 | 67.60065 | 8908 ft | 128 kts | 117° |
| 2026-05-07 05:45 | 56.62407 | 67.61540 | 8904 ft | 128 kts | 117° |
| 2026-05-07 05:45 | 56.62028 | 67.62997 | 8901 ft | 126 kts | 117° |
| 2026-05-07 05:46 | 56.61656 | 67.64451 | 8903 ft | 127 kts | 117° |
| 2026-05-07 05:46 | 56.61292 | 67.65889 | 8902 ft | 126 kts | 117° |
| 2026-05-07 05:46 | 56.60916 | 67.67353 | 8901 ft | 129 kts | 118° |
| 2026-05-07 05:46 | 56.60540 | 67.68815 | 8901 ft | 127 kts | 117° |
| 2026-05-07 05:47 | 56.60162 | 67.70285 | 8902 ft | 128 kts | 117° |
| 2026-05-07 05:47 | 56.59789 | 67.71724 | 8910 ft | 128 kts | 116° |
| 2026-05-07 05:47 | 56.59418 | 67.73185 | 8900 ft | 126 kts | 118° |
| 2026-05-07 05:47 | 56.59048 | 67.74624 | 8900 ft | 125 kts | 118° |
| 2026-05-07 05:48 | 56.58676 | 67.76066 | 8908 ft | 126 kts | 118° |
| 2026-05-07 05:48 | 56.58306 | 67.77504 | 8903 ft | 126 kts | 118° |
| 2026-05-07 05:48 | 56.57935 | 67.78947 | 8901 ft | 126 kts | 118° |
| 2026-05-07 05:48 | 56.57561 | 67.80387 | 8902 ft | 125 kts | 117° |
| 2026-05-07 05:49 | 56.57192 | 67.81832 | 8914 ft | 128 kts | 117° |
| 2026-05-07 05:49 | 56.56805 | 67.83320 | 8905 ft | 130 kts | 118° |
| 2026-05-07 05:49 | 56.56424 | 67.84791 | 8907 ft | 128 kts | 118° |
| 2026-05-07 05:49 | 56.56050 | 67.86241 | 8908 ft | 126 kts | 118° |
| 2026-05-07 05:50 | 56.55683 | 67.87658 | 8904 ft | 125 kts | 118° |
| 2026-05-07 05:50 | 56.55312 | 67.89090 | 8915 ft | 127 kts | 118° |
| 2026-05-07 05:50 | 56.54928 | 67.90572 | 8903 ft | 131 kts | 118° |
| 2026-05-07 05:50 | 56.54547 | 67.92042 | 8903 ft | 127 kts | 118° |
| 2026-05-07 05:51 | 56.54177 | 67.93473 | 8905 ft | 126 kts | 117° |
| 2026-05-07 05:51 | 56.53804 | 67.94907 | 8906 ft | 125 kts | 118° |
| 2026-05-07 05:51 | 56.53432 | 67.96339 | 8904 ft | 125 kts | 118° |
| 2026-05-07 05:51 | 56.53061 | 67.97765 | 8901 ft | 124 kts | 118° |
| 2026-05-07 05:52 | 56.52693 | 67.99180 | 8916 ft | 124 kts | 118° |
| 2026-05-07 05:52 | 56.52322 | 68.00608 | 8907 ft | 125 kts | 118° |
| 2026-05-07 05:52 | 56.51954 | 68.02022 | 8910 ft | 125 kts | 118° |
| 2026-05-07 05:52 | 56.51580 | 68.03451 | 8912 ft | 126 kts | 118° |
| 2026-05-07 05:53 | 56.51205 | 68.04898 | 8910 ft | 126 kts | 118° |
| 2026-05-07 05:53 | 56.50827 | 68.06336 | 8906 ft | 126 kts | 119° |
| 2026-05-07 05:53 | 56.50452 | 68.07777 | 8916 ft | 126 kts | 118° |
| 2026-05-07 05:53 | 56.50073 | 68.09223 | 8918 ft | 127 kts | 118° |
| 2026-05-07 05:54 | 56.49691 | 68.10680 | 8916 ft | 128 kts | 118° |
| 2026-05-07 05:54 | 56.49311 | 68.12137 | 8917 ft | 130 kts | 118° |
| 2026-05-07 05:54 | 56.48923 | 68.13624 | 8918 ft | 129 kts | 119° |
| 2026-05-07 05:54 | 56.48542 | 68.15076 | 8911 ft | 128 kts | 118° |
| 2026-05-07 05:55 | 56.48162 | 68.16526 | 8918 ft | 127 kts | 119° |
| 2026-05-07 05:55 | 56.47776 | 68.17998 | 8925 ft | 130 kts | 119° |
| 2026-05-07 05:55 | 56.47383 | 68.19489 | 8916 ft | 131 kts | 119° |
| 2026-05-07 05:55 | 56.46999 | 68.20957 | 8918 ft | 128 kts | 118° |
| 2026-05-07 05:56 | 56.46617 | 68.22408 | 8914 ft | 127 kts | 118° |
| 2026-05-07 05:56 | 56.46245 | 68.23830 | 8922 ft | 127 kts | 118° |
| 2026-05-07 05:56 | 56.45865 | 68.25281 | 8911 ft | 126 kts | 118° |
| 2026-05-07 05:56 | 56.45485 | 68.26710 | 8917 ft | 128 kts | 119° |
| 2026-05-07 05:57 | 56.45099 | 68.28168 | 8918 ft | 128 kts | 120° |
| 2026-05-07 05:57 | 56.44711 | 68.29640 | 8918 ft | 130 kts | 119° |
| 2026-05-07 05:57 | 56.44323 | 68.31112 | 8922 ft | 130 kts | 118° |
| 2026-05-07 05:57 | 56.43940 | 68.32575 | 8913 ft | 127 kts | 119° |
| 2026-05-07 05:58 | 56.43566 | 68.33994 | 8912 ft | 125 kts | 120° |
| 2026-05-07 05:58 | 56.43186 | 68.35426 | 8910 ft | 126 kts | 120° |
| 2026-05-07 05:58 | 56.42807 | 68.36852 | 8916 ft | 126 kts | 120° |
| 2026-05-07 05:58 | 56.42427 | 68.38286 | 8916 ft | 128 kts | 119° |
| 2026-05-07 05:59 | 56.42042 | 68.39746 | 8919 ft | 130 kts | 120° |
| 2026-05-07 05:59 | 56.41655 | 68.41211 | 8912 ft | 127 kts | 119° |
| 2026-05-07 05:59 | 56.41277 | 68.42636 | 8908 ft | 125 kts | 119° |
| 2026-05-07 05:59 | 56.40896 | 68.44075 | 8917 ft | 128 kts | 120° |
| 2026-05-07 06:00 | 56.40514 | 68.45510 | 8917 ft | 128 kts | 120° |
| 2026-05-07 06:00 | 56.40125 | 68.46963 | 8917 ft | 129 kts | 119° |
| 2026-05-07 06:00 | 56.39735 | 68.48439 | 8920 ft | 130 kts | 119° |
| 2026-05-07 06:00 | 56.39341 | 68.49921 | 8913 ft | 130 kts | 120° |
| 2026-05-07 06:01 | 56.38955 | 68.51370 | 8915 ft | 127 kts | 120° |
| 2026-05-07 06:01 | 56.38566 | 68.52833 | 8924 ft | 130 kts | 119° |
| 2026-05-07 06:01 | 56.38175 | 68.54295 | 8923 ft | 131 kts | 120° |
| 2026-05-07 06:01 | 56.37779 | 68.55780 | 8924 ft | 132 kts | 120° |
| 2026-05-07 06:02 | 56.37378 | 68.57279 | 8915 ft | 131 kts | 120° |
| 2026-05-07 06:02 | 56.37120 | 68.58252 | 8913 ft | 128 kts | 120° |
| 2026-05-07 06:02 | 56.36732 | 68.59702 | 8918 ft | 128 kts | 120° |
| 2026-05-07 06:02 | 56.36344 | 68.61157 | 8912 ft | 127 kts | 120° |
| 2026-05-07 06:03 | 56.35839 | 68.63046 | 8921 ft | 125 kts | 121° |
| 2026-05-07 06:03 | 56.35456 | 68.64474 | 8915 ft | 127 kts | 119° |
| 2026-05-07 06:03 | 56.35198 | 68.65436 | 8915 ft | 126 kts | 120° |
| 2026-05-07 06:03 | 56.34822 | 68.66836 | 8916 ft | 125 kts | 120° |
| 2026-05-07 06:04 | 56.34440 | 68.68261 | 8911 ft | 124 kts | 121° |
| 2026-05-07 06:04 | 56.34070 | 68.69644 | 8907 ft | 124 kts | 120° |
| 2026-05-07 06:04 | 56.33692 | 68.71048 | 8908 ft | 125 kts | 121° |
| 2026-05-07 06:04 | 56.33314 | 68.72455 | 8913 ft | 124 kts | 120° |
| 2026-05-07 06:05 | 56.32938 | 68.73857 | 8911 ft | 124 kts | 121° |
| 2026-05-07 06:05 | 56.32562 | 68.75252 | 8911 ft | 123 kts | 120° |
| 2026-05-07 06:05 | 56.32187 | 68.76647 | 8911 ft | 124 kts | 120° |
| 2026-05-07 06:05 | 56.31809 | 68.78052 | 8913 ft | 124 kts | 120° |
| 2026-05-07 06:06 | 56.31434 | 68.79443 | 8916 ft | 124 kts | 120° |
| 2026-05-07 06:06 | 56.31057 | 68.80841 | 8913 ft | 124 kts | 120° |
| 2026-05-07 06:06 | 56.30679 | 68.82239 | 8914 ft | 124 kts | 120° |
| 2026-05-07 06:06 | 56.30301 | 68.83640 | 8916 ft | 124 kts | 121° |
| 2026-05-07 06:07 | 56.29923 | 68.85040 | 8914 ft | 124 kts | 121° |
| 2026-05-07 06:07 | 56.29544 | 68.86441 | 8914 ft | 125 kts | 121° |
| 2026-05-07 06:07 | 56.29168 | 68.87831 | 8914 ft | 125 kts | 120° |
| 2026-05-07 06:07 | 56.28788 | 68.89237 | 8912 ft | 124 kts | 120° |
| 2026-05-07 06:08 | 56.28408 | 68.90639 | 8914 ft | 124 kts | 121° |
| 2026-05-07 06:08 | 56.28032 | 68.92028 | 8913 ft | 124 kts | 120° |
| 2026-05-07 06:08 | 56.27651 | 68.93429 | 8914 ft | 124 kts | 120° |
| 2026-05-07 06:08 | 56.27272 | 68.94829 | 8913 ft | 124 kts | 120° |
| 2026-05-07 06:09 | 56.26892 | 68.96228 | 8914 ft | 124 kts | 121° |
| 2026-05-07 06:09 | 56.26517 | 68.97606 | 8914 ft | 124 kts | 120° |
| 2026-05-07 06:09 | 56.26139 | 68.99000 | 8915 ft | 124 kts | 120° |
| 2026-05-07 06:09 | 56.25760 | 69.00391 | 8916 ft | 124 kts | 121° |
| 2026-05-07 06:10 | 56.25382 | 69.01780 | 8914 ft | 123 kts | 121° |
| 2026-05-07 06:10 | 56.25006 | 69.03161 | 8917 ft | 123 kts | 121° |
| 2026-05-07 06:10 | 56.24630 | 69.04541 | 8913 ft | 123 kts | 121° |
| 2026-05-07 06:10 | 56.24255 | 69.05915 | 8912 ft | 123 kts | 120° |
| 2026-05-07 06:11 | 56.23878 | 69.07297 | 8913 ft | 123 kts | 121° |
| 2026-05-07 06:11 | 56.23502 | 69.08675 | 8916 ft | 123 kts | 121° |
| 2026-05-07 06:11 | 56.23124 | 69.10060 | 8915 ft | 123 kts | 121° |
| 2026-05-07 06:11 | 56.22753 | 69.11417 | 8915 ft | 123 kts | 121° |
| 2026-05-07 06:12 | 56.22378 | 69.12789 | 8918 ft | 122 kts | 121° |
| 2026-05-07 06:12 | 56.22001 | 69.14166 | 8918 ft | 123 kts | 121° |
| 2026-05-07 06:12 | 56.21623 | 69.15548 | 8917 ft | 123 kts | 121° |
| 2026-05-07 06:12 | 56.21242 | 69.16936 | 8918 ft | 123 kts | 121° |
| 2026-05-07 06:13 | 56.20867 | 69.18301 | 8915 ft | 123 kts | 121° |
| 2026-05-07 06:13 | 56.20488 | 69.19683 | 8916 ft | 123 kts | 121° |
| 2026-05-07 06:13 | 56.20109 | 69.21066 | 8918 ft | 123 kts | 121° |
| 2026-05-07 06:13 | 56.19729 | 69.22451 | 8918 ft | 123 kts | 121° |
| 2026-05-07 06:14 | 56.19348 | 69.23836 | 8917 ft | 124 kts | 121° |
| 2026-05-07 06:14 | 56.18967 | 69.25223 | 8916 ft | 124 kts | 121° |
| 2026-05-07 06:14 | 56.18591 | 69.26586 | 8914 ft | 123 kts | 121° |
| 2026-05-07 06:14 | 56.18210 | 69.27972 | 8917 ft | 124 kts | 121° |
| 2026-05-07 06:15 | 56.17827 | 69.29364 | 8919 ft | 124 kts | 120° |
| 2026-05-07 06:15 | 56.17442 | 69.30758 | 8917 ft | 124 kts | 121° |
| 2026-05-07 06:15 | 56.17063 | 69.32131 | 8920 ft | 124 kts | 122° |
| 2026-05-07 06:15 | 56.16679 | 69.33526 | 8918 ft | 125 kts | 121° |
| 2026-05-07 06:16 | 56.16290 | 69.34932 | 8920 ft | 125 kts | 121° |
| 2026-05-07 06:16 | 56.15910 | 69.36307 | 8917 ft | 124 kts | 121° |
| 2026-05-07 06:16 | 56.15526 | 69.37699 | 8918 ft | 124 kts | 121° |
| 2026-05-07 06:16 | 56.15144 | 69.39081 | 8917 ft | 124 kts | 121° |
| 2026-05-07 06:17 | 56.14759 | 69.40470 | 8918 ft | 124 kts | 121° |
| 2026-05-07 06:17 | 56.14373 | 69.41864 | 8919 ft | 125 kts | 121° |
| 2026-05-07 06:17 | 56.13955 | 69.43210 | 8915 ft | 122 kts | 130° |
| 2026-05-07 06:17 | 56.13518 | 69.44507 | 8918 ft | 123 kts | 125° |
| 2026-05-07 06:18 | 56.13085 | 69.45833 | 8919 ft | 123 kts | 126° |
| 2026-05-07 06:18 | 56.12647 | 69.47148 | 8918 ft | 122 kts | 126° |
| 2026-05-07 06:18 | 56.12209 | 69.48459 | 8918 ft | 122 kts | 126° |
| 2026-05-07 06:18 | 56.11771 | 69.49767 | 8921 ft | 123 kts | 126° |
| 2026-05-07 06:19 | 56.11335 | 69.51065 | 8917 ft | 123 kts | 126° |
| 2026-05-07 06:19 | 56.10894 | 69.52376 | 8918 ft | 122 kts | 126° |
| 2026-05-07 06:19 | 56.10454 | 69.53684 | 8919 ft | 122 kts | 126° |
| 2026-05-07 06:19 | 56.10014 | 69.54992 | 8915 ft | 122 kts | 126° |
| 2026-05-07 06:20 | 56.09575 | 69.56298 | 8922 ft | 122 kts | 126° |
| 2026-05-07 06:20 | 56.09140 | 69.57588 | 8920 ft | 122 kts | 126° |
| 2026-05-07 06:20 | 56.08700 | 69.58896 | 8919 ft | 122 kts | 126° |
| 2026-05-07 06:20 | 56.08281 | 69.60216 | 8921 ft | 122 kts | 118° |
| 2026-05-07 06:21 | 56.07913 | 69.61588 | 8920 ft | 122 kts | 123° |
| 2026-05-07 06:21 | 56.07522 | 69.62943 | 8916 ft | 122 kts | 122° |
| 2026-05-07 06:21 | 56.07144 | 69.64286 | 8919 ft | 122 kts | 122° |
| 2026-05-07 06:21 | 56.06762 | 69.65649 | 8921 ft | 122 kts | 122° |
| 2026-05-07 06:22 | 56.06380 | 69.67015 | 8919 ft | 123 kts | 122° |
| 2026-05-07 06:22 | 56.05621 | 69.69732 | 8920 ft | 122 kts | 121° |
| 2026-05-07 06:22 | 56.05240 | 69.71092 | 8920 ft | 122 kts | 122° |
| 2026-05-07 06:23 | 56.04860 | 69.72453 | 8921 ft | 122 kts | 122° |
| 2026-05-07 06:23 | 56.04479 | 69.73815 | 8920 ft | 122 kts | 122° |
| 2026-05-07 06:23 | 56.04101 | 69.75168 | 8923 ft | 121 kts | 122° |
| 2026-05-07 06:23 | 56.03726 | 69.76502 | 8923 ft | 122 kts | 122° |
| 2026-05-07 06:24 | 56.03345 | 69.77864 | 8920 ft | 122 kts | 122° |
| 2026-05-07 06:24 | 56.02964 | 69.79222 | 8920 ft | 122 kts | 122° |
| 2026-05-07 06:24 | 56.02585 | 69.80573 | 8917 ft | 121 kts | 122° |
| 2026-05-07 06:24 | 56.02208 | 69.81917 | 8921 ft | 121 kts | 122° |
| 2026-05-07 06:25 | 56.01833 | 69.83250 | 8925 ft | 121 kts | 122° |
| 2026-05-07 06:25 | 56.01453 | 69.84602 | 8922 ft | 121 kts | 123° |
| 2026-05-07 06:25 | 56.01071 | 69.85957 | 8924 ft | 122 kts | 121° |
| 2026-05-07 06:25 | 56.00696 | 69.87290 | 8924 ft | 122 kts | 122° |
| 2026-05-07 06:26 | 56.00314 | 69.88647 | 8923 ft | 122 kts | 123° |
| 2026-05-07 06:26 | 55.99929 | 69.90012 | 8927 ft | 123 kts | 123° |
| 2026-05-07 06:26 | 55.99542 | 69.91382 | 8927 ft | 123 kts | 121° |
| 2026-05-07 06:26 | 55.99162 | 69.92732 | 8928 ft | 122 kts | 122° |
| 2026-05-07 06:27 | 55.98779 | 69.94088 | 8927 ft | 122 kts | 122° |
| 2026-05-07 06:27 | 55.98395 | 69.95448 | 8926 ft | 123 kts | 122° |
| 2026-05-07 06:27 | 55.98008 | 69.96816 | 8928 ft | 123 kts | 123° |
| 2026-05-07 06:27 | 55.97623 | 69.98180 | 8928 ft | 123 kts | 123° |
| 2026-05-07 06:28 | 55.97237 | 69.99542 | 8928 ft | 122 kts | 123° |
| 2026-05-07 06:28 | 55.96854 | 70.00897 | 8926 ft | 122 kts | 122° |
| 2026-05-07 06:28 | 55.96474 | 70.02238 | 8926 ft | 122 kts | 122° |
| 2026-05-07 06:28 | 55.96091 | 70.03590 | 8925 ft | 122 kts | 122° |
| 2026-05-07 06:29 | 55.95706 | 70.04943 | 8926 ft | 122 kts | 123° |
| 2026-05-07 06:29 | 55.95325 | 70.06284 | 8926 ft | 122 kts | 123° |
| 2026-05-07 06:29 | 55.94941 | 70.07641 | 8924 ft | 122 kts | 122° |
| 2026-05-07 06:29 | 55.94557 | 70.08992 | 8926 ft | 122 kts | 123° |
| 2026-05-07 06:30 | 55.94173 | 70.10341 | 8927 ft | 122 kts | 122° |
| 2026-05-07 06:30 | 55.93790 | 70.11687 | 8925 ft | 122 kts | 122° |
| 2026-05-07 06:30 | 55.93406 | 70.13037 | 8929 ft | 121 kts | 123° |
| 2026-05-07 06:30 | 55.93029 | 70.14361 | 8930 ft | 121 kts | 124° |
| 2026-05-07 06:31 | 55.92649 | 70.15694 | 8927 ft | 121 kts | 123° |
| 2026-05-07 06:31 | 55.92269 | 70.17028 | 8925 ft | 120 kts | 122° |
| 2026-05-07 06:31 | 55.91889 | 70.18362 | 8925 ft | 120 kts | 122° |
| 2026-05-07 06:31 | 55.91509 | 70.19693 | 8923 ft | 120 kts | 123° |
| 2026-05-07 06:32 | 55.91130 | 70.21017 | 8924 ft | 119 kts | 122° |
| 2026-05-07 06:32 | 55.90760 | 70.22316 | 8928 ft | 119 kts | 123° |
| 2026-05-07 06:32 | 55.90383 | 70.23635 | 8932 ft | 119 kts | 123° |
| 2026-05-07 06:32 | 55.90003 | 70.24963 | 8926 ft | 120 kts | 124° |
| 2026-05-07 06:33 | 55.89629 | 70.26267 | 8932 ft | 119 kts | 124° |
| 2026-05-07 06:33 | 55.89251 | 70.27588 | 8930 ft | 120 kts | 123° |
| 2026-05-07 06:33 | 55.88872 | 70.28909 | 8932 ft | 120 kts | 123° |
| 2026-05-07 06:33 | 55.88492 | 70.30236 | 8934 ft | 120 kts | 124° |
| 2026-05-07 06:34 | 55.88112 | 70.31562 | 8934 ft | 120 kts | 123° |
| 2026-05-07 06:34 | 55.87737 | 70.32868 | 8932 ft | 120 kts | 124° |
| 2026-05-07 06:34 | 55.87357 | 70.34189 | 8935 ft | 120 kts | 124° |
| 2026-05-07 06:34 | 55.86975 | 70.35520 | 8936 ft | 121 kts | 124° |
| 2026-05-07 06:35 | 55.86590 | 70.36855 | 8936 ft | 121 kts | 123° |
| 2026-05-07 06:35 | 55.86206 | 70.38190 | 8933 ft | 121 kts | 125° |
| 2026-05-07 06:35 | 55.85823 | 70.39524 | 8932 ft | 120 kts | 123° |
| 2026-05-07 06:35 | 55.85446 | 70.40831 | 8933 ft | 120 kts | 123° |
| 2026-05-07 06:36 | 55.85062 | 70.42164 | 8936 ft | 121 kts | 124° |
| 2026-05-07 06:36 | 55.84677 | 70.43499 | 8937 ft | 121 kts | 123° |
| 2026-05-07 06:36 | 55.84292 | 70.44833 | 8936 ft | 121 kts | 123° |
| 2026-05-07 06:36 | 55.83908 | 70.46165 | 8936 ft | 121 kts | 123° |
| 2026-05-07 06:37 | 55.83521 | 70.47501 | 8939 ft | 121 kts | 123° |
| 2026-05-07 06:37 | 55.83138 | 70.48831 | 8940 ft | 120 kts | 123° |
| 2026-05-07 06:37 | 55.82759 | 70.50139 | 8936 ft | 120 kts | 123° |
| 2026-05-07 06:37 | 55.82373 | 70.51468 | 8940 ft | 121 kts | 123° |
| 2026-05-07 06:38 | 55.81989 | 70.52797 | 8936 ft | 120 kts | 124° |
| 2026-05-07 06:38 | 55.81607 | 70.54119 | 8934 ft | 120 kts | 123° |
| 2026-05-07 06:38 | 55.81225 | 70.55436 | 8937 ft | 120 kts | 124° |
| 2026-05-07 06:38 | 55.80848 | 70.56738 | 8936 ft | 120 kts | 123° |
| 2026-05-07 06:39 | 55.80464 | 70.58058 | 8939 ft | 120 kts | 123° |
| 2026-05-07 06:39 | 55.80077 | 70.59389 | 8940 ft | 121 kts | 123° |
| 2026-05-07 06:39 | 55.79691 | 70.60718 | 8937 ft | 121 kts | 124° |
| 2026-05-07 06:39 | 55.79307 | 70.62043 | 8938 ft | 120 kts | 124° |
| 2026-05-07 06:40 | 55.78926 | 70.63351 | 8942 ft | 120 kts | 123° |
| 2026-05-07 06:40 | 55.78540 | 70.64678 | 8941 ft | 121 kts | 123° |
| 2026-05-07 06:40 | 55.78153 | 70.66004 | 8941 ft | 120 kts | 124° |
| 2026-05-07 06:40 | 55.77767 | 70.67329 | 8943 ft | 121 kts | 124° |
| 2026-05-07 06:41 | 55.77383 | 70.68645 | 8944 ft | 121 kts | 124° |
| 2026-05-07 06:41 | 55.76994 | 70.69981 | 8943 ft | 121 kts | 124° |
| 2026-05-07 06:41 | 55.76607 | 70.71309 | 8943 ft | 121 kts | 123° |
| 2026-05-07 06:41 | 55.76218 | 70.72642 | 8945 ft | 121 kts | 125° |
| 2026-05-07 06:42 | 55.75828 | 70.73975 | 8948 ft | 122 kts | 124° |
| 2026-05-07 06:42 | 55.75435 | 70.75318 | 8947 ft | 122 kts | 123° |
| 2026-05-07 06:42 | 55.75044 | 70.76659 | 8946 ft | 122 kts | 124° |
| 2026-05-07 06:42 | 55.74658 | 70.77976 | 8950 ft | 122 kts | 123° |
| 2026-05-07 06:43 | 55.74267 | 70.79309 | 8944 ft | 121 kts | 124° |
| 2026-05-07 06:43 | 55.73879 | 70.80634 | 8944 ft | 121 kts | 124° |
| 2026-05-07 06:43 | 55.73488 | 70.81968 | 8944 ft | 122 kts | 124° |
| 2026-05-07 06:43 | 55.73095 | 70.83305 | 8948 ft | 122 kts | 124° |
| 2026-05-07 06:44 | 55.72702 | 70.84645 | 8946 ft | 122 kts | 124° |
| 2026-05-07 06:44 | 55.72311 | 70.85979 | 8946 ft | 122 kts | 124° |
| 2026-05-07 06:44 | 55.71918 | 70.87316 | 8947 ft | 122 kts | 124° |
| 2026-05-07 06:44 | 55.71529 | 70.88638 | 8948 ft | 122 kts | 124° |
| 2026-05-07 06:45 | 55.71136 | 70.89976 | 8949 ft | 122 kts | 125° |
| 2026-05-07 06:45 | 55.70742 | 70.91315 | 8950 ft | 122 kts | 124° |
| 2026-05-07 06:45 | 55.70350 | 70.92644 | 8950 ft | 122 kts | 125° |
| 2026-05-07 06:45 | 55.69954 | 70.93986 | 8955 ft | 123 kts | 124° |
| 2026-05-07 06:46 | 55.69557 | 70.95331 | 8957 ft | 123 kts | 124° |
| 2026-05-07 06:46 | 55.69166 | 70.96659 | 8952 ft | 123 kts | 124° |
| 2026-05-07 06:46 | 55.68770 | 70.98002 | 8949 ft | 122 kts | 126° |
| 2026-05-07 06:46 | 55.68377 | 70.99335 | 8948 ft | 122 kts | 124° |
| 2026-05-07 06:47 | 55.67983 | 71.00665 | 8952 ft | 122 kts | 124° |
| 2026-05-07 06:47 | 55.67588 | 71.02000 | 8952 ft | 122 kts | 124° |
| 2026-05-07 06:47 | 55.67195 | 71.03329 | 8947 ft | 122 kts | 123° |
| 2026-05-07 06:47 | 55.66807 | 71.04640 | 8951 ft | 121 kts | 124° |
| 2026-05-07 06:48 | 55.66414 | 71.05966 | 8950 ft | 121 kts | 124° |
| 2026-05-07 06:48 | 55.66023 | 71.07289 | 8949 ft | 121 kts | 125° |
| 2026-05-07 06:48 | 55.65636 | 71.08594 | 8947 ft | 121 kts | 124° |
| 2026-05-07 06:48 | 55.65243 | 71.09916 | 8949 ft | 121 kts | 124° |
| 2026-05-07 06:49 | 55.64850 | 71.11243 | 8949 ft | 122 kts | 126° |
| 2026-05-07 06:49 | 55.64454 | 71.12575 | 8951 ft | 122 kts | 125° |
| 2026-05-07 06:49 | 55.64064 | 71.13888 | 8952 ft | 121 kts | 124° |
| 2026-05-07 06:49 | 55.63669 | 71.15216 | 8952 ft | 122 kts | 124° |
| 2026-05-07 06:50 | 55.63405 | 71.16103 | 8949 ft | 123 kts | 124° |
| 2026-05-07 06:50 | 55.62872 | 71.17892 | 8964 ft | 124 kts | 125° |
| 2026-05-07 06:50 | 55.62598 | 71.18810 | 8961 ft | 125 kts | 125° |
| 2026-05-07 06:50 | 55.62191 | 71.20177 | 8959 ft | 126 kts | 126° |
| 2026-05-07 06:51 | 55.61784 | 71.21540 | 8960 ft | 127 kts | 124° |
| 2026-05-07 06:51 | 55.61336 | 71.22874 | 8967 ft | 124 kts | 133° |
| 2026-05-07 06:51 | 55.60840 | 71.24150 | 8921 ft | 128 kts | 130° |
| 2026-05-07 06:51 | 55.60340 | 71.25475 | 8873 ft | 130 kts | 130° |
| 2026-05-07 06:52 | 55.59830 | 71.26811 | 8815 ft | 132 kts | 131° |
| 2026-05-07 06:52 | 55.59312 | 71.28164 | 8750 ft | 134 kts | 131° |
| 2026-05-07 06:52 | 55.58794 | 71.29511 | 8666 ft | 135 kts | 131° |
| 2026-05-07 06:52 | 55.58261 | 71.30894 | 8562 ft | 137 kts | 130° |
| 2026-05-07 06:53 | 55.57718 | 71.32304 | 8473 ft | 139 kts | 131° |
| 2026-05-07 06:53 | 55.57168 | 71.33731 | 8369 ft | 140 kts | 131° |
| 2026-05-07 06:53 | 55.56625 | 71.35139 | 8273 ft | 140 kts | 131° |
| 2026-05-07 06:53 | 55.56078 | 71.36561 | 8172 ft | 140 kts | 130° |
| 2026-05-07 06:54 | 55.55527 | 71.37987 | 8071 ft | 140 kts | 130° |
| 2026-05-07 06:54 | 55.54974 | 71.39414 | 7973 ft | 140 kts | 130° |
| 2026-05-07 06:54 | 55.54426 | 71.40839 | 7875 ft | 139 kts | 131° |
| 2026-05-07 06:54 | 55.53738 | 71.42616 | 7757 ft | 143 kts | 131° |
| 2026-05-07 06:55 | 55.53192 | 71.44037 | 7650 ft | 140 kts | 131° |
| 2026-05-07 06:55 | 55.52640 | 71.45459 | 7550 ft | 141 kts | 131° |
| 2026-05-07 06:55 | 55.52089 | 71.46882 | 7452 ft | 140 kts | 131° |
| 2026-05-07 06:55 | 55.51543 | 71.48291 | 7361 ft | 139 kts | 131° |
| 2026-05-07 06:56 | 55.50994 | 71.49709 | 7257 ft | 138 kts | 130° |
| 2026-05-07 06:56 | 55.50451 | 71.51101 | 7152 ft | 137 kts | 131° |
| 2026-05-07 06:56 | 55.49935 | 71.52420 | 7033 ft | 118 kts | 134° |
| 2026-05-07 06:56 | 55.49476 | 71.53423 | 6951 ft | 92 kts | 147° |
| 2026-05-07 06:57 | 55.48994 | 71.53830 | 6821 ft | 72 kts | 186° |
| 2026-05-07 06:57 | 55.48623 | 71.53337 | 6639 ft | 78 kts | 250° |
| 2026-05-07 06:57 | 55.48939 | 71.52525 | 6339 ft | 113 kts | 10° |
| 2026-05-07 06:57 | 55.49451 | 71.53556 | 5986 ft | 114 kts | 54° |
| 2026-05-07 06:58 | 55.50208 | 71.53864 | 5547 ft | 121 kts | 336° |
| 2026-05-07 06:58 | 55.50879 | 71.52968 | 4802 ft | 130 kts | 302° |
| 2026-05-07 06:58 | 55.51356 | 71.51363 | 3771 ft | 144 kts | 277° |
| 2026-05-07 06:58 | 55.51258 | 71.49742 | 3058 ft | 129 kts | 246° |
| 2026-05-07 06:59 | 55.50728 | 71.48598 | 2324 ft | 122 kts | 206° |
| 2026-05-07 06:59 | 55.49913 | 71.48220 | 1674 ft | 121 kts | 186° |
| 2026-05-07 06:59 | 55.49104 | 71.48467 | 1166 ft | 121 kts | 166° |
| 2026-05-07 06:59 | 55.48350 | 71.49168 | 590 ft | 122 kts | 143° |
| 2026-05-07 07:00 | 55.47818 | 71.50147 | 428 ft | 94 kts | 138° |
| 2026-05-07 07:00 | 55.47573 | 71.51006 | 420 ft | 67 kts | 117° |
| 2026-05-07 07:00 | 55.47485 | 71.51510 | 411 ft | 0 kts | 105° |
| 2026-05-07 07:01 | 55.47485 | 71.51509 | 411 ft | 0 kts | 105° |